sensor_id;sensor_type;location;lat;lon;timestamp;P1;durP1;ratioP1;P2;durP2;ratioP2
1993;SDS011;998;49.906;10.908;2023-03-24T00:00:17;6.23;;;3.50;;
1993;SDS011;998;49.906;10.908;2023-03-24T00:02:46;5.43;;;3.50;;
1993;SDS011;998;49.906;10.908;2023-03-24T00:05:16;6.43;;;3.10;;
1993;SDS011;998;49.906;10.908;2023-03-24T00:07:44;5.20;;;3.80;;
1993;SDS011;998;49.906;10.908;2023-03-24T00:10:14;5.03;;;3.03;;
1993;SDS011;998;49.906;10.908;2023-03-24T00:12:44;5.40;;;3.57;;
1993;SDS011;998;49.906;10.908;2023-03-24T00:15:14;7.57;;;4.20;;
1993;SDS011;998;49.906;10.908;2023-03-24T00:17:43;6.50;;;4.00;;
1993;SDS011;998;49.906;10.908;2023-03-24T00:20:12;6.10;;;3.60;;
1993;SDS011;998;49.906;10.908;2023-03-24T00:22:41;10.27;;;3.43;;
1993;SDS011;998;49.906;10.908;2023-03-24T00:25:15;8.40;;;4.27;;
1993;SDS011;998;49.906;10.908;2023-03-24T00:27:45;8.00;;;4.30;;
1993;SDS011;998;49.906;10.908;2023-03-24T00:30:13;5.23;;;3.80;;
1993;SDS011;998;49.906;10.908;2023-03-24T00:32:42;5.60;;;3.63;;
1993;SDS011;998;49.906;10.908;2023-03-24T00:35:11;5.70;;;3.20;;
1993;SDS011;998;49.906;10.908;2023-03-24T00:37:40;6.87;;;4.43;;
1993;SDS011;998;49.906;10.908;2023-03-24T00:40:09;5.67;;;3.87;;
1993;SDS011;998;49.906;10.908;2023-03-24T00:42:40;5.40;;;3.50;;
1993;SDS011;998;49.906;10.908;2023-03-24T00:45:12;6.50;;;3.43;;
1993;SDS011;998;49.906;10.908;2023-03-24T00:47:40;5.63;;;3.43;;
1993;SDS011;998;49.906;10.908;2023-03-24T00:50:10;6.40;;;4.00;;
1993;SDS011;998;49.906;10.908;2023-03-24T00:52:39;8.30;;;3.70;;
1993;SDS011;998;49.906;10.908;2023-03-24T00:55:09;6.30;;;3.50;;
1993;SDS011;998;49.906;10.908;2023-03-24T00:57:39;5.70;;;4.10;;
1993;SDS011;998;49.906;10.908;2023-03-24T01:00:15;6.97;;;3.77;;
1993;SDS011;998;49.906;10.908;2023-03-24T01:02:45;7.40;;;4.47;;
1993;SDS011;998;49.906;10.908;2023-03-24T01:05:17;5.30;;;3.70;;
1993;SDS011;998;49.906;10.908;2023-03-24T01:07:45;6.10;;;3.47;;
1993;SDS011;998;49.906;10.908;2023-03-24T01:10:16;6.90;;;4.10;;
1993;SDS011;998;49.906;10.908;2023-03-24T01:12:45;5.77;;;3.73;;
1993;SDS011;998;49.906;10.908;2023-03-24T01:15:17;9.43;;;3.77;;
1993;SDS011;998;49.906;10.908;2023-03-24T01:17:46;8.87;;;4.17;;
1993;SDS011;998;49.906;10.908;2023-03-24T01:20:14;6.00;;;4.07;;
1993;SDS011;998;49.906;10.908;2023-03-24T01:22:42;6.13;;;3.67;;
1993;SDS011;998;49.906;10.908;2023-03-24T01:25:11;7.33;;;4.73;;
1993;SDS011;998;49.906;10.908;2023-03-24T01:27:40;7.47;;;3.90;;
1993;SDS011;998;49.906;10.908;2023-03-24T01:30:10;7.73;;;3.90;;
1993;SDS011;998;49.906;10.908;2023-03-24T01:32:40;5.37;;;3.60;;
1993;SDS011;998;49.906;10.908;2023-03-24T01:35:08;8.13;;;4.70;;
1993;SDS011;998;49.906;10.908;2023-03-24T01:37:36;5.57;;;3.80;;
1993;SDS011;998;49.906;10.908;2023-03-24T01:40:04;9.43;;;4.07;;
1993;SDS011;998;49.906;10.908;2023-03-24T01:42:34;10.70;;;5.00;;
1993;SDS011;998;49.906;10.908;2023-03-24T01:48:04;4.57;;;3.37;;
1993;SDS011;998;49.906;10.908;2023-03-24T01:50:33;6.53;;;3.50;;
1993;SDS011;998;49.906;10.908;2023-03-24T01:53:00;4.97;;;3.60;;
1993;SDS011;998;49.906;10.908;2023-03-24T01:55:28;5.17;;;3.60;;
1993;SDS011;998;49.906;10.908;2023-03-24T01:57:58;4.83;;;3.97;;
1993;SDS011;998;49.906;10.908;2023-03-24T02:00:27;5.83;;;3.87;;
1993;SDS011;998;49.906;10.908;2023-03-24T02:02:56;5.10;;;3.07;;
1993;SDS011;998;49.906;10.908;2023-03-24T02:05:30;5.00;;;3.33;;
1993;SDS011;998;49.906;10.908;2023-03-24T02:08:01;4.13;;;3.23;;
1993;SDS011;998;49.906;10.908;2023-03-24T02:10:32;6.17;;;3.50;;
1993;SDS011;998;49.906;10.908;2023-03-24T02:13:00;5.60;;;3.47;;
1993;SDS011;998;49.906;10.908;2023-03-24T02:15:29;6.10;;;3.80;;
1993;SDS011;998;49.906;10.908;2023-03-24T02:18:00;6.37;;;3.57;;
1993;SDS011;998;49.906;10.908;2023-03-24T02:23:54;7.27;;;3.67;;
1993;SDS011;998;49.906;10.908;2023-03-24T02:29:38;7.03;;;3.37;;
1993;SDS011;998;49.906;10.908;2023-03-24T02:41:54;5.67;;;3.37;;
1993;SDS011;998;49.906;10.908;2023-03-24T02:44:29;5.53;;;3.73;;
1993;SDS011;998;49.906;10.908;2023-03-24T02:47:07;6.93;;;3.27;;
1993;SDS011;998;49.906;10.908;2023-03-24T02:49:42;6.93;;;3.80;;
1993;SDS011;998;49.906;10.908;2023-03-24T02:52:16;8.20;;;3.90;;
1993;SDS011;998;49.906;10.908;2023-03-24T02:54:48;7.40;;;3.50;;
1993;SDS011;998;49.906;10.908;2023-03-24T02:57:26;6.00;;;3.43;;
1993;SDS011;998;49.906;10.908;2023-03-24T02:59:58;5.13;;;3.37;;
1993;SDS011;998;49.906;10.908;2023-03-24T03:02:31;7.93;;;3.60;;
1993;SDS011;998;49.906;10.908;2023-03-24T03:05:03;4.47;;;3.30;;
1993;SDS011;998;49.906;10.908;2023-03-24T03:07:33;4.37;;;2.87;;
1993;SDS011;998;49.906;10.908;2023-03-24T03:10:03;7.30;;;3.40;;
1993;SDS011;998;49.906;10.908;2023-03-24T03:12:35;6.20;;;3.30;;
1993;SDS011;998;49.906;10.908;2023-03-24T03:15:04;4.97;;;3.50;;
1993;SDS011;998;49.906;10.908;2023-03-24T03:17:36;5.53;;;3.67;;
1993;SDS011;998;49.906;10.908;2023-03-24T03:20:08;7.97;;;3.83;;
1993;SDS011;998;49.906;10.908;2023-03-24T03:22:39;5.17;;;3.33;;
1993;SDS011;998;49.906;10.908;2023-03-24T03:25:09;4.80;;;3.10;;
1993;SDS011;998;49.906;10.908;2023-03-24T03:27:40;9.23;;;3.63;;
1993;SDS011;998;49.906;10.908;2023-03-24T03:30:11;4.87;;;3.10;;
1993;SDS011;998;49.906;10.908;2023-03-24T03:32:43;6.60;;;2.90;;
1993;SDS011;998;49.906;10.908;2023-03-24T03:35:19;5.13;;;3.27;;
1993;SDS011;998;49.906;10.908;2023-03-24T03:37:51;4.33;;;2.70;;
1993;SDS011;998;49.906;10.908;2023-03-24T03:40:24;3.93;;;2.90;;
1993;SDS011;998;49.906;10.908;2023-03-24T03:42:59;5.30;;;3.47;;
1993;SDS011;998;49.906;10.908;2023-03-24T03:45:27;5.67;;;2.90;;
1993;SDS011;998;49.906;10.908;2023-03-24T03:47:55;5.80;;;3.50;;
1993;SDS011;998;49.906;10.908;2023-03-24T03:50:22;4.93;;;3.20;;
1993;SDS011;998;49.906;10.908;2023-03-24T03:52:50;5.03;;;3.50;;
1993;SDS011;998;49.906;10.908;2023-03-24T03:55:18;6.20;;;3.67;;
1993;SDS011;998;49.906;10.908;2023-03-24T03:57:46;5.00;;;3.67;;
1993;SDS011;998;49.906;10.908;2023-03-24T04:00:17;5.83;;;3.53;;
1993;SDS011;998;49.906;10.908;2023-03-24T04:02:50;5.67;;;3.17;;
1993;SDS011;998;49.906;10.908;2023-03-24T04:05:37;8.07;;;3.70;;
1993;SDS011;998;49.906;10.908;2023-03-24T04:08:19;4.57;;;3.30;;
1993;SDS011;998;49.906;10.908;2023-03-24T04:11:14;4.17;;;3.03;;
1993;SDS011;998;49.906;10.908;2023-03-24T04:13:56;4.73;;;2.70;;
1993;SDS011;998;49.906;10.908;2023-03-24T04:16:36;6.47;;;3.83;;
1993;SDS011;998;49.906;10.908;2023-03-24T04:19:12;6.40;;;3.63;;
1993;SDS011;998;49.906;10.908;2023-03-24T04:22:01;8.20;;;3.60;;
1993;SDS011;998;49.906;10.908;2023-03-24T04:24:42;4.40;;;3.03;;
1993;SDS011;998;49.906;10.908;2023-03-24T04:27:18;6.07;;;3.63;;
1993;SDS011;998;49.906;10.908;2023-03-24T04:29:53;4.50;;;3.10;;
1993;SDS011;998;49.906;10.908;2023-03-24T04:32:30;4.80;;;3.40;;
1993;SDS011;998;49.906;10.908;2023-03-24T04:35:01;7.43;;;3.80;;
1993;SDS011;998;49.906;10.908;2023-03-24T04:37:33;5.77;;;2.87;;
1993;SDS011;998;49.906;10.908;2023-03-24T04:40:03;6.63;;;3.90;;
1993;SDS011;998;49.906;10.908;2023-03-24T04:42:35;6.90;;;4.00;;
1993;SDS011;998;49.906;10.908;2023-03-24T04:45:06;3.90;;;2.43;;
1993;SDS011;998;49.906;10.908;2023-03-24T04:47:39;5.23;;;3.27;;
1993;SDS011;998;49.906;10.908;2023-03-24T04:50:11;6.10;;;3.70;;
1993;SDS011;998;49.906;10.908;2023-03-24T04:52:40;4.77;;;3.27;;
1993;SDS011;998;49.906;10.908;2023-03-24T04:55:17;4.87;;;3.00;;
1993;SDS011;998;49.906;10.908;2023-03-24T04:57:56;6.40;;;3.13;;
1993;SDS011;998;49.906;10.908;2023-03-24T05:00:24;7.07;;;3.07;;
1993;SDS011;998;49.906;10.908;2023-03-24T05:02:53;4.20;;;2.90;;
1993;SDS011;998;49.906;10.908;2023-03-24T05:05:20;4.70;;;3.30;;
1993;SDS011;998;49.906;10.908;2023-03-24T05:07:47;5.87;;;3.10;;
1993;SDS011;998;49.906;10.908;2023-03-24T05:10:15;3.73;;;2.60;;
1993;SDS011;998;49.906;10.908;2023-03-24T05:12:43;5.20;;;3.50;;
1993;SDS011;998;49.906;10.908;2023-03-24T05:15:11;7.47;;;2.90;;
1993;SDS011;998;49.906;10.908;2023-03-24T05:17:38;9.63;;;3.97;;
1993;SDS011;998;49.906;10.908;2023-03-24T05:20:09;6.17;;;3.77;;
1993;SDS011;998;49.906;10.908;2023-03-24T05:22:37;6.10;;;3.43;;
1993;SDS011;998;49.906;10.908;2023-03-24T05:25:04;6.13;;;3.00;;
1993;SDS011;998;49.906;10.908;2023-03-24T05:27:32;6.77;;;4.07;;
1993;SDS011;998;49.906;10.908;2023-03-24T05:30:00;9.73;;;3.50;;
1993;SDS011;998;49.906;10.908;2023-03-24T05:32:27;6.47;;;3.67;;
1993;SDS011;998;49.906;10.908;2023-03-24T05:34:55;5.90;;;3.50;;
1993;SDS011;998;49.906;10.908;2023-03-24T05:37:24;8.20;;;3.77;;
1993;SDS011;998;49.906;10.908;2023-03-24T05:39:51;5.00;;;3.73;;
1993;SDS011;998;49.906;10.908;2023-03-24T05:42:19;5.90;;;3.50;;
1993;SDS011;998;49.906;10.908;2023-03-24T05:44:47;5.60;;;3.30;;
1993;SDS011;998;49.906;10.908;2023-03-24T05:47:14;7.53;;;3.57;;
1993;SDS011;998;49.906;10.908;2023-03-24T05:49:44;5.07;;;3.60;;
1993;SDS011;998;49.906;10.908;2023-03-24T05:52:12;6.43;;;3.10;;
1993;SDS011;998;49.906;10.908;2023-03-24T05:54:42;5.80;;;3.40;;
1993;SDS011;998;49.906;10.908;2023-03-24T05:57:10;4.50;;;3.20;;
1993;SDS011;998;49.906;10.908;2023-03-24T05:59:38;5.90;;;3.70;;
1993;SDS011;998;49.906;10.908;2023-03-24T06:02:06;6.67;;;3.57;;
1993;SDS011;998;49.906;10.908;2023-03-24T06:04:33;5.73;;;3.83;;
1993;SDS011;998;49.906;10.908;2023-03-24T06:07:02;6.80;;;3.90;;
1993;SDS011;998;49.906;10.908;2023-03-24T06:09:30;7.07;;;3.73;;
1993;SDS011;998;49.906;10.908;2023-03-24T06:12:01;5.60;;;3.40;;
1993;SDS011;998;49.906;10.908;2023-03-24T06:14:29;6.70;;;3.10;;
1993;SDS011;998;49.906;10.908;2023-03-24T06:16:57;4.40;;;3.07;;
1993;SDS011;998;49.906;10.908;2023-03-24T06:19:25;7.80;;;3.70;;
1993;SDS011;998;49.906;10.908;2023-03-24T06:21:55;4.43;;;3.07;;
1993;SDS011;998;49.906;10.908;2023-03-24T06:24:24;4.77;;;3.20;;
1993;SDS011;998;49.906;10.908;2023-03-24T06:26:52;5.93;;;3.67;;
1993;SDS011;998;49.906;10.908;2023-03-24T06:29:27;5.50;;;3.60;;
1993;SDS011;998;49.906;10.908;2023-03-24T06:31:55;6.97;;;4.70;;
1993;SDS011;998;49.906;10.908;2023-03-24T06:34:23;5.40;;;3.33;;
1993;SDS011;998;49.906;10.908;2023-03-24T06:36:50;5.67;;;2.80;;
1993;SDS011;998;49.906;10.908;2023-03-24T06:39:18;5.97;;;3.20;;
1993;SDS011;998;49.906;10.908;2023-03-24T06:41:45;3.60;;;2.80;;
1993;SDS011;998;49.906;10.908;2023-03-24T06:44:13;3.43;;;2.20;;
1993;SDS011;998;49.906;10.908;2023-03-24T06:46:42;3.07;;;2.37;;
1993;SDS011;998;49.906;10.908;2023-03-24T06:49:10;4.17;;;2.17;;
1993;SDS011;998;49.906;10.908;2023-03-24T06:51:36;5.00;;;2.00;;
1993;SDS011;998;49.906;10.908;2023-03-24T06:54:04;3.33;;;2.13;;
1993;SDS011;998;49.906;10.908;2023-03-24T06:56:31;3.40;;;2.30;;
1993;SDS011;998;49.906;10.908;2023-03-24T06:58:58;4.80;;;2.30;;
1993;SDS011;998;49.906;10.908;2023-03-24T07:01:25;4.00;;;2.00;;
1993;SDS011;998;49.906;10.908;2023-03-24T07:03:55;3.30;;;2.03;;
1993;SDS011;998;49.906;10.908;2023-03-24T07:06:22;3.23;;;1.93;;
1993;SDS011;998;49.906;10.908;2023-03-24T07:08:50;4.50;;;2.37;;
1993;SDS011;998;49.906;10.908;2023-03-24T07:11:17;4.30;;;2.73;;
1993;SDS011;998;49.906;10.908;2023-03-24T07:13:45;6.53;;;2.70;;
1993;SDS011;998;49.906;10.908;2023-03-24T07:16:12;4.30;;;2.50;;
1993;SDS011;998;49.906;10.908;2023-03-24T07:18:39;4.03;;;2.60;;
1993;SDS011;998;49.906;10.908;2023-03-24T07:21:08;4.33;;;3.00;;
1993;SDS011;998;49.906;10.908;2023-03-24T07:23:35;4.30;;;2.33;;
1993;SDS011;998;49.906;10.908;2023-03-24T07:26:03;4.07;;;2.53;;
1993;SDS011;998;49.906;10.908;2023-03-24T07:28:30;4.10;;;2.50;;
1993;SDS011;998;49.906;10.908;2023-03-24T07:31:00;3.73;;;2.30;;
1993;SDS011;998;49.906;10.908;2023-03-24T07:33:28;4.13;;;2.30;;
1993;SDS011;998;49.906;10.908;2023-03-24T07:35:56;5.30;;;2.80;;
1993;SDS011;998;49.906;10.908;2023-03-24T07:38:25;6.10;;;3.10;;
1993;SDS011;998;49.906;10.908;2023-03-24T07:40:53;4.50;;;2.70;;
1993;SDS011;998;49.906;10.908;2023-03-24T07:43:20;5.53;;;2.80;;
1993;SDS011;998;49.906;10.908;2023-03-24T07:45:48;3.10;;;2.00;;
1993;SDS011;998;49.906;10.908;2023-03-24T07:48:15;8.73;;;3.00;;
1993;SDS011;998;49.906;10.908;2023-03-24T07:50:42;4.40;;;2.13;;
1993;SDS011;998;49.906;10.908;2023-03-24T07:53:10;4.40;;;2.20;;
1993;SDS011;998;49.906;10.908;2023-03-24T07:55:40;3.20;;;2.20;;
1993;SDS011;998;49.906;10.908;2023-03-24T07:58:07;3.20;;;1.87;;
1993;SDS011;998;49.906;10.908;2023-03-24T08:00:37;6.87;;;2.33;;
1993;SDS011;998;49.906;10.908;2023-03-24T08:03:04;3.80;;;2.60;;
1993;SDS011;998;49.906;10.908;2023-03-24T08:05:33;5.90;;;2.57;;
1993;SDS011;998;49.906;10.908;2023-03-24T08:08:01;5.60;;;2.50;;
1993;SDS011;998;49.906;10.908;2023-03-24T08:10:31;3.10;;;1.67;;
1993;SDS011;998;49.906;10.908;2023-03-24T08:13:00;2.90;;;1.83;;
1993;SDS011;998;49.906;10.908;2023-03-24T08:15:27;2.70;;;1.80;;
1993;SDS011;998;49.906;10.908;2023-03-24T08:17:55;3.00;;;1.77;;
1993;SDS011;998;49.906;10.908;2023-03-24T08:20:23;3.10;;;1.93;;
1993;SDS011;998;49.906;10.908;2023-03-24T08:22:51;5.50;;;2.07;;
1993;SDS011;998;49.906;10.908;2023-03-24T08:25:20;3.10;;;2.00;;
1993;SDS011;998;49.906;10.908;2023-03-24T08:27:49;4.53;;;1.80;;
1993;SDS011;998;49.906;10.908;2023-03-24T08:30:19;3.70;;;2.00;;
1993;SDS011;998;49.906;10.908;2023-03-24T08:32:48;3.07;;;2.27;;
1993;SDS011;998;49.906;10.908;2023-03-24T08:35:16;6.00;;;2.27;;
1993;SDS011;998;49.906;10.908;2023-03-24T08:37:45;3.30;;;1.80;;
1993;SDS011;998;49.906;10.908;2023-03-24T08:40:14;3.40;;;2.17;;
1993;SDS011;998;49.906;10.908;2023-03-24T08:42:46;3.30;;;1.90;;
1993;SDS011;998;49.906;10.908;2023-03-24T08:45:14;4.10;;;1.97;;
1993;SDS011;998;49.906;10.908;2023-03-24T08:47:46;6.10;;;1.90;;
1993;SDS011;998;49.906;10.908;2023-03-24T08:50:14;4.30;;;2.80;;
1993;SDS011;998;49.906;10.908;2023-03-24T08:52:42;3.20;;;1.70;;
1993;SDS011;998;49.906;10.908;2023-03-24T08:55:12;3.47;;;1.90;;
1993;SDS011;998;49.906;10.908;2023-03-24T08:57:40;3.53;;;1.90;;
1993;SDS011;998;49.906;10.908;2023-03-24T09:00:08;3.10;;;2.20;;
1993;SDS011;998;49.906;10.908;2023-03-24T09:02:39;3.00;;;1.80;;
1993;SDS011;998;49.906;10.908;2023-03-24T09:05:09;3.93;;;1.77;;
1993;SDS011;998;49.906;10.908;2023-03-24T09:07:36;3.40;;;2.27;;
1993;SDS011;998;49.906;10.908;2023-03-24T09:10:04;4.40;;;2.43;;
1993;SDS011;998;49.906;10.908;2023-03-24T09:12:33;3.20;;;2.50;;
1993;SDS011;998;49.906;10.908;2023-03-24T09:15:01;4.90;;;2.50;;
1993;SDS011;998;49.906;10.908;2023-03-24T09:17:29;4.83;;;2.40;;
1993;SDS011;998;49.906;10.908;2023-03-24T09:19:57;3.90;;;1.93;;
1993;SDS011;998;49.906;10.908;2023-03-24T09:22:26;4.57;;;2.40;;
1993;SDS011;998;49.906;10.908;2023-03-24T09:24:53;3.90;;;2.33;;
1993;SDS011;998;49.906;10.908;2023-03-24T09:27:21;3.70;;;2.23;;
1993;SDS011;998;49.906;10.908;2023-03-24T09:29:48;2.87;;;1.83;;
1993;SDS011;998;49.906;10.908;2023-03-24T09:32:18;4.53;;;2.10;;
1993;SDS011;998;49.906;10.908;2023-03-24T09:34:45;3.40;;;2.60;;
1993;SDS011;998;49.906;10.908;2023-03-24T09:37:12;3.53;;;2.20;;
1993;SDS011;998;49.906;10.908;2023-03-24T09:39:41;5.23;;;2.23;;
1993;SDS011;998;49.906;10.908;2023-03-24T09:42:09;4.60;;;2.67;;
1993;SDS011;998;49.906;10.908;2023-03-24T09:44:45;4.93;;;1.93;;
1993;SDS011;998;49.906;10.908;2023-03-24T09:47:20;3.47;;;2.20;;
1993;SDS011;998;49.906;10.908;2023-03-24T09:49:53;3.17;;;2.00;;
1993;SDS011;998;49.906;10.908;2023-03-24T09:52:26;11.93;;;3.10;;
1993;SDS011;998;49.906;10.908;2023-03-24T09:54:57;2.93;;;1.97;;
1993;SDS011;998;49.906;10.908;2023-03-24T09:57:27;4.40;;;2.47;;
1993;SDS011;998;49.906;10.908;2023-03-24T10:00:01;4.40;;;2.77;;
1993;SDS011;998;49.906;10.908;2023-03-24T10:02:35;3.10;;;2.23;;
1993;SDS011;998;49.906;10.908;2023-03-24T10:05:05;3.70;;;2.13;;
1993;SDS011;998;49.906;10.908;2023-03-24T10:07:41;2.97;;;2.10;;
1993;SDS011;998;49.906;10.908;2023-03-24T10:10:18;4.40;;;2.10;;
1993;SDS011;998;49.906;10.908;2023-03-24T10:12:52;3.87;;;2.10;;
1993;SDS011;998;49.906;10.908;2023-03-24T10:15:29;3.70;;;2.20;;
1993;SDS011;998;49.906;10.908;2023-03-24T10:18:07;3.27;;;2.33;;
1993;SDS011;998;49.906;10.908;2023-03-24T10:20:46;4.37;;;2.67;;
1993;SDS011;998;49.906;10.908;2023-03-24T10:23:23;3.13;;;2.20;;
1993;SDS011;998;49.906;10.908;2023-03-24T10:26:01;3.13;;;2.17;;
1993;SDS011;998;49.906;10.908;2023-03-24T10:28:37;2.90;;;2.10;;
1993;SDS011;998;49.906;10.908;2023-03-24T10:31:09;4.53;;;2.30;;
1993;SDS011;998;49.906;10.908;2023-03-24T10:33:39;4.43;;;2.17;;
1993;SDS011;998;49.906;10.908;2023-03-24T10:36:08;3.07;;;2.10;;
1993;SDS011;998;49.906;10.908;2023-03-24T10:38:39;6.23;;;2.57;;
1993;SDS011;998;49.906;10.908;2023-03-24T10:41:09;3.80;;;2.67;;
1993;SDS011;998;49.906;10.908;2023-03-24T10:43:41;4.57;;;2.10;;
1993;SDS011;998;49.906;10.908;2023-03-24T10:46:10;4.87;;;2.57;;
1993;SDS011;998;49.906;10.908;2023-03-24T10:48:40;3.30;;;2.10;;
1993;SDS011;998;49.906;10.908;2023-03-24T10:51:16;4.77;;;2.60;;
1993;SDS011;998;49.906;10.908;2023-03-24T10:53:45;2.80;;;1.67;;
1993;SDS011;998;49.906;10.908;2023-03-24T10:56:16;3.73;;;2.20;;
1993;SDS011;998;49.906;10.908;2023-03-24T10:59:02;3.87;;;2.60;;
1993;SDS011;998;49.906;10.908;2023-03-24T11:01:31;3.53;;;2.40;;
1993;SDS011;998;49.906;10.908;2023-03-24T11:03:59;3.37;;;2.00;;
1993;SDS011;998;49.906;10.908;2023-03-24T11:06:31;4.77;;;2.23;;
1993;SDS011;998;49.906;10.908;2023-03-24T11:09:06;3.93;;;1.97;;
1993;SDS011;998;49.906;10.908;2023-03-24T11:11:37;2.60;;;1.50;;
1993;SDS011;998;49.906;10.908;2023-03-24T11:14:15;3.57;;;2.00;;
1993;SDS011;998;49.906;10.908;2023-03-24T11:16:48;2.50;;;1.53;;
1993;SDS011;998;49.906;10.908;2023-03-24T11:19:17;3.83;;;1.80;;
1993;SDS011;998;49.906;10.908;2023-03-24T11:21:46;2.53;;;1.33;;
1993;SDS011;998;49.906;10.908;2023-03-24T11:24:15;2.27;;;1.40;;
1993;SDS011;998;49.906;10.908;2023-03-24T11:26:46;2.77;;;1.70;;
1993;SDS011;998;49.906;10.908;2023-03-24T11:29:20;3.80;;;1.47;;
1993;SDS011;998;49.906;10.908;2023-03-24T11:31:50;3.40;;;1.50;;
1993;SDS011;998;49.906;10.908;2023-03-24T11:34:21;3.73;;;1.73;;
1993;SDS011;998;49.906;10.908;2023-03-24T11:36:52;3.07;;;1.63;;
1993;SDS011;998;49.906;10.908;2023-03-24T11:39:22;4.70;;;1.80;;
1993;SDS011;998;49.906;10.908;2023-03-24T11:41:58;3.67;;;1.70;;
1993;SDS011;998;49.906;10.908;2023-03-24T11:44:29;2.40;;;1.33;;
1993;SDS011;998;49.906;10.908;2023-03-24T11:46:59;2.40;;;1.40;;
1993;SDS011;998;49.906;10.908;2023-03-24T11:49:32;3.60;;;1.93;;
1993;SDS011;998;49.906;10.908;2023-03-24T11:52:03;4.07;;;1.90;;
1993;SDS011;998;49.906;10.908;2023-03-24T11:54:35;3.50;;;1.30;;
1993;SDS011;998;49.906;10.908;2023-03-24T11:57:06;2.93;;;1.83;;
1993;SDS011;998;49.906;10.908;2023-03-24T11:59:39;2.87;;;2.10;;
1993;SDS011;998;49.906;10.908;2023-03-24T12:02:17;2.90;;;1.90;;
1993;SDS011;998;49.906;10.908;2023-03-24T12:04:56;3.30;;;1.97;;
1993;SDS011;998;49.906;10.908;2023-03-24T12:10:52;6.03;;;1.90;;
1993;SDS011;998;49.906;10.908;2023-03-24T12:13:32;3.37;;;1.50;;
1993;SDS011;998;49.906;10.908;2023-03-24T12:16:11;2.97;;;1.73;;
1993;SDS011;998;49.906;10.908;2023-03-24T12:22:16;2.43;;;1.10;;
1993;SDS011;998;49.906;10.908;2023-03-24T12:24:58;4.10;;;1.60;;
1993;SDS011;998;49.906;10.908;2023-03-24T12:27:45;2.70;;;1.30;;
1993;SDS011;998;49.906;10.908;2023-03-24T12:30:22;2.67;;;1.50;;
1993;SDS011;998;49.906;10.908;2023-03-24T12:32:58;2.50;;;1.47;;
1993;SDS011;998;49.906;10.908;2023-03-24T12:35:43;2.73;;;1.30;;
1993;SDS011;998;49.906;10.908;2023-03-24T12:38:23;2.30;;;1.30;;
1993;SDS011;998;49.906;10.908;2023-03-24T12:41:05;2.67;;;1.33;;
1993;SDS011;998;49.906;10.908;2023-03-24T12:44:00;3.40;;;1.50;;
1993;SDS011;998;49.906;10.908;2023-03-24T12:46:45;2.20;;;1.10;;
1993;SDS011;998;49.906;10.908;2023-03-24T12:52:11;2.10;;;1.10;;
1993;SDS011;998;49.906;10.908;2023-03-24T12:54:50;2.73;;;1.43;;
1993;SDS011;998;49.906;10.908;2023-03-24T12:57:31;2.73;;;1.37;;
1993;SDS011;998;49.906;10.908;2023-03-24T13:00:03;2.50;;;1.10;;
1993;SDS011;998;49.906;10.908;2023-03-24T13:02:38;2.10;;;1.00;;
1993;SDS011;998;49.906;10.908;2023-03-24T13:05:13;2.10;;;1.00;;
1993;SDS011;998;49.906;10.908;2023-03-24T13:07:43;2.80;;;1.20;;
1993;SDS011;998;49.906;10.908;2023-03-24T13:10:18;2.13;;;0.90;;
1993;SDS011;998;49.906;10.908;2023-03-24T13:12:51;2.83;;;1.27;;
1993;SDS011;998;49.906;10.908;2023-03-24T13:15:22;3.67;;;1.10;;
1993;SDS011;998;49.906;10.908;2023-03-24T13:17:57;2.47;;;0.80;;
1993;SDS011;998;49.906;10.908;2023-03-24T13:20:32;3.30;;;0.90;;
1993;SDS011;998;49.906;10.908;2023-03-24T13:23:08;2.50;;;0.90;;
1993;SDS011;998;49.906;10.908;2023-03-24T13:25:55;2.20;;;0.90;;
1993;SDS011;998;49.906;10.908;2023-03-24T13:28:28;1.90;;;0.70;;
1993;SDS011;998;49.906;10.908;2023-03-24T13:31:00;2.17;;;1.00;;
1993;SDS011;998;49.906;10.908;2023-03-24T13:33:30;4.00;;;1.07;;
1993;SDS011;998;49.906;10.908;2023-03-24T13:36:08;3.10;;;0.90;;
1993;SDS011;998;49.906;10.908;2023-03-24T13:38:48;3.50;;;1.07;;
1993;SDS011;998;49.906;10.908;2023-03-24T13:41:18;2.50;;;0.83;;
1993;SDS011;998;49.906;10.908;2023-03-24T13:43:51;2.13;;;1.00;;
1993;SDS011;998;49.906;10.908;2023-03-24T13:46:24;3.70;;;1.43;;
1993;SDS011;998;49.906;10.908;2023-03-24T13:48:54;3.30;;;1.10;;
1993;SDS011;998;49.906;10.908;2023-03-24T13:51:24;2.90;;;1.27;;
1993;SDS011;998;49.906;10.908;2023-03-24T13:53:52;4.10;;;1.03;;
1993;SDS011;998;49.906;10.908;2023-03-24T13:56:24;3.53;;;0.93;;
1993;SDS011;998;49.906;10.908;2023-03-24T13:59:08;6.50;;;1.00;;
1993;SDS011;998;49.906;10.908;2023-03-24T14:04:45;2.27;;;1.00;;
1993;SDS011;998;49.906;10.908;2023-03-24T14:07:27;5.20;;;1.10;;
1993;SDS011;998;49.906;10.908;2023-03-24T14:09:57;2.20;;;1.00;;
1993;SDS011;998;49.906;10.908;2023-03-24T14:12:26;2.73;;;1.27;;
1993;SDS011;998;49.906;10.908;2023-03-24T14:17:42;4.80;;;1.90;;
1993;SDS011;998;49.906;10.908;2023-03-24T14:20:21;3.97;;;1.40;;
1993;SDS011;998;49.906;10.908;2023-03-24T14:22:55;3.73;;;2.03;;
1993;SDS011;998;49.906;10.908;2023-03-24T14:25:25;4.23;;;1.83;;
1993;SDS011;998;49.906;10.908;2023-03-24T14:28:05;4.20;;;2.50;;
1993;SDS011;998;49.906;10.908;2023-03-24T14:30:53;6.30;;;2.10;;
1993;SDS011;998;49.906;10.908;2023-03-24T14:33:28;3.63;;;1.70;;
1993;SDS011;998;49.906;10.908;2023-03-24T14:36:00;3.20;;;1.30;;
1993;SDS011;998;49.906;10.908;2023-03-24T14:38:33;7.57;;;1.23;;
1993;SDS011;998;49.906;10.908;2023-03-24T14:41:05;5.23;;;1.40;;
1993;SDS011;998;49.906;10.908;2023-03-24T14:43:54;3.70;;;1.40;;
1993;SDS011;998;49.906;10.908;2023-03-24T14:46:33;3.23;;;1.43;;
1993;SDS011;998;49.906;10.908;2023-03-24T14:49:03;2.40;;;1.10;;
1993;SDS011;998;49.906;10.908;2023-03-24T14:51:38;3.27;;;1.33;;
1993;SDS011;998;49.906;10.908;2023-03-24T14:54:12;3.70;;;1.90;;
1993;SDS011;998;49.906;10.908;2023-03-24T14:56:44;1.90;;;0.90;;
1993;SDS011;998;49.906;10.908;2023-03-24T14:59:18;2.10;;;0.93;;
1993;SDS011;998;49.906;10.908;2023-03-24T15:01:54;3.33;;;1.47;;
1993;SDS011;998;49.906;10.908;2023-03-24T15:04:26;3.07;;;1.10;;
1993;SDS011;998;49.906;10.908;2023-03-24T15:06:55;4.70;;;1.40;;
1993;SDS011;998;49.906;10.908;2023-03-24T15:09:22;1.97;;;0.90;;
1993;SDS011;998;49.906;10.908;2023-03-24T15:11:49;2.50;;;1.10;;
1993;SDS011;998;49.906;10.908;2023-03-24T15:14:19;3.70;;;1.50;;
1993;SDS011;998;49.906;10.908;2023-03-24T15:16:53;4.00;;;1.47;;
1993;SDS011;998;49.906;10.908;2023-03-24T15:19:23;2.53;;;1.20;;
1993;SDS011;998;49.906;10.908;2023-03-24T15:21:58;2.57;;;1.07;;
1993;SDS011;998;49.906;10.908;2023-03-24T15:24:27;3.33;;;1.20;;
1993;SDS011;998;49.906;10.908;2023-03-24T15:29:43;1.90;;;0.90;;
1993;SDS011;998;49.906;10.908;2023-03-24T15:32:14;2.53;;;1.20;;
1993;SDS011;998;49.906;10.908;2023-03-24T15:34:46;3.73;;;1.30;;
1993;SDS011;998;49.906;10.908;2023-03-24T15:37:20;2.33;;;0.90;;
1993;SDS011;998;49.906;10.908;2023-03-24T15:39:49;2.40;;;0.97;;
1993;SDS011;998;49.906;10.908;2023-03-24T15:42:17;2.60;;;1.20;;
1993;SDS011;998;49.906;10.908;2023-03-24T15:44:47;4.07;;;1.83;;
1993;SDS011;998;49.906;10.908;2023-03-24T15:47:17;2.57;;;1.30;;
1993;SDS011;998;49.906;10.908;2023-03-24T15:49:49;2.70;;;1.30;;
1993;SDS011;998;49.906;10.908;2023-03-24T15:52:27;4.10;;;1.57;;
1993;SDS011;998;49.906;10.908;2023-03-24T15:54:59;2.20;;;0.90;;
1993;SDS011;998;49.906;10.908;2023-03-24T15:57:34;2.43;;;1.07;;
1993;SDS011;998;49.906;10.908;2023-03-24T16:00:10;4.33;;;1.03;;
1993;SDS011;998;49.906;10.908;2023-03-24T16:02:41;2.00;;;0.90;;
1993;SDS011;998;49.906;10.908;2023-03-24T16:05:20;2.50;;;1.37;;
1993;SDS011;998;49.906;10.908;2023-03-24T16:07:57;2.43;;;1.20;;
1993;SDS011;998;49.906;10.908;2023-03-24T16:10:29;2.90;;;1.37;;
1993;SDS011;998;49.906;10.908;2023-03-24T16:13:07;2.57;;;1.30;;
1993;SDS011;998;49.906;10.908;2023-03-24T16:15:43;4.00;;;1.63;;
1993;SDS011;998;49.906;10.908;2023-03-24T16:18:13;2.90;;;1.33;;